sensor_id;sensor_type;location;lat;lon;timestamp;pressure;altitude;pressure_sealevel;temperature;humidity
55733;BME280;41637;52.364;9.910;2023-02-10T00:02:04;102625.15;;;2.84;85.52
55733;BME280;41637;52.364;9.910;2023-02-10T00:04:31;102626.31;;;2.81;85.80
55733;BME280;41637;52.364;9.910;2023-02-10T00:06:58;102634.91;;;2.81;86.22
55733;BME280;41637;52.364;9.910;2023-02-10T00:09:24;102629.79;;;2.82;86.25
55733;BME280;41637;52.364;9.910;2023-02-10T00:11:51;102639.08;;;2.78;86.55
55733;BME280;41637;52.364;9.910;2023-02-10T00:14:23;102634.27;;;2.76;86.75
55733;BME280;41637;52.364;9.910;2023-02-10T00:16:51;102633.38;;;2.73;87.06
55733;BME280;41637;52.364;9.910;2023-02-10T00:19:19;102634.79;;;2.69;86.87
55733;BME280;41637;52.364;9.910;2023-02-10T00:21:47;102635.73;;;2.72;86.69
55733;BME280;41637;52.364;9.910;2023-02-10T00:24:14;102638.93;;;2.71;86.63
55733;BME280;41637;52.364;9.910;2023-02-10T00:26:41;102637.63;;;2.69;86.58
55733;BME280;41637;52.364;9.910;2023-02-10T00:29:08;102640.42;;;2.69;86.23
55733;BME280;41637;52.364;9.910;2023-02-10T00:31:34;102643.92;;;2.69;86.34
55733;BME280;41637;52.364;9.910;2023-02-10T00:34:02;102650.31;;;2.70;86.21
55733;BME280;41637;52.364;9.910;2023-02-10T00:36:29;102646.81;;;2.70;86.24
55733;BME280;41637;52.364;9.910;2023-02-10T00:38:55;102649.70;;;2.68;86.18
55733;BME280;41637;52.364;9.910;2023-02-10T00:41:23;102653.48;;;2.70;86.04
55733;BME280;41637;52.364;9.910;2023-02-10T00:43:59;102656.07;;;2.66;86.13
55733;BME280;41637;52.364;9.910;2023-02-10T00:46:26;102663.45;;;2.62;85.84
55733;BME280;41637;52.364;9.910;2023-02-10T00:48:53;102659.02;;;2.63;85.92
55733;BME280;41637;52.364;9.910;2023-02-10T00:51:20;102656.88;;;2.61;86.04
55733;BME280;41637;52.364;9.910;2023-02-10T00:53:47;102661.80;;;2.60;86.31
55733;BME280;41637;52.364;9.910;2023-02-10T00:56:18;102659.61;;;2.58;86.10
55733;BME280;41637;52.364;9.910;2023-02-10T00:58:47;102663.21;;;2.56;86.21
55733;BME280;41637;52.364;9.910;2023-02-10T01:01:14;102662.45;;;2.54;86.61
55733;BME280;41637;52.364;9.910;2023-02-10T01:03:40;102658.06;;;2.54;86.49
55733;BME280;41637;52.364;9.910;2023-02-10T01:06:07;102659.87;;;2.53;86.65
55733;BME280;41637;52.364;9.910;2023-02-10T01:08:34;102664.73;;;2.53;86.68
55733;BME280;41637;52.364;9.910;2023-02-10T01:11:04;102666.75;;;2.52;86.76
55733;BME280;41637;52.364;9.910;2023-02-10T01:13:31;102669.95;;;2.50;87.07
55733;BME280;41637;52.364;9.910;2023-02-10T01:16:00;102665.96;;;2.50;87.28
55733;BME280;41637;52.364;9.910;2023-02-10T01:18:28;102666.35;;;2.53;86.96
55733;BME280;41637;52.364;9.910;2023-02-10T01:20:54;102670.02;;;2.52;86.80
55733;BME280;41637;52.364;9.910;2023-02-10T01:23:21;102663.67;;;2.54;86.92
55733;BME280;41637;52.364;9.910;2023-02-10T01:25:48;102668.15;;;2.55;87.14
55733;BME280;41637;52.364;9.910;2023-02-10T01:28:15;102669.32;;;2.56;87.29
55733;BME280;41637;52.364;9.910;2023-02-10T01:30:43;102678.83;;;2.58;87.14
55733;BME280;41637;52.364;9.910;2023-02-10T01:33:10;102677.60;;;2.58;87.15
55733;BME280;41637;52.364;9.910;2023-02-10T01:35:37;102676.84;;;2.59;87.16
55733;BME280;41637;52.364;9.910;2023-02-10T01:38:05;102675.64;;;2.59;87.50
55733;BME280;41637;52.364;9.910;2023-02-10T01:40:32;102675.89;;;2.61;87.05
55733;BME280;41637;52.364;9.910;2023-02-10T01:42:59;102669.53;;;2.63;86.76
55733;BME280;41637;52.364;9.910;2023-02-10T01:45:33;102668.53;;;2.65;86.98
55733;BME280;41637;52.364;9.910;2023-02-10T01:48:01;102667.68;;;2.65;86.91
55733;BME280;41637;52.364;9.910;2023-02-10T01:50:31;102663.29;;;2.65;86.69
55733;BME280;41637;52.364;9.910;2023-02-10T01:53:02;102658.01;;;2.66;86.55
55733;BME280;41637;52.364;9.910;2023-02-10T01:55:32;102656.81;;;2.65;86.88
55733;BME280;41637;52.364;9.910;2023-02-10T01:58:03;102658.16;;;2.67;87.14
55733;BME280;41637;52.364;9.910;2023-02-10T02:00:31;102655.60;;;2.65;87.18
55733;BME280;41637;52.364;9.910;2023-02-10T02:03:01;102645.05;;;2.67;87.26
55733;BME280;41637;52.364;9.910;2023-02-10T02:05:37;102642.38;;;2.68;87.08
55733;BME280;41637;52.364;9.910;2023-02-10T02:08:25;102644.05;;;2.69;86.68
55733;BME280;41637;52.364;9.910;2023-02-10T02:11:21;102643.39;;;2.69;87.05
55733;BME280;41637;52.364;9.910;2023-02-10T02:18:59;102645.70;;;2.64;87.26
55733;BME280;41637;52.364;9.910;2023-02-10T02:30:26;102662.08;;;2.61;88.38
55733;BME280;41637;52.364;9.910;2023-02-10T02:33:02;102662.29;;;2.64;88.13
55733;BME280;41637;52.364;9.910;2023-02-10T02:35:37;102661.77;;;2.68;88.12
55733;BME280;41637;52.364;9.910;2023-02-10T02:38:05;102662.87;;;2.71;87.65
55733;BME280;41637;52.364;9.910;2023-02-10T02:40:32;102657.58;;;2.71;88.05
55733;BME280;41637;52.364;9.910;2023-02-10T02:42:59;102664.89;;;2.72;87.82
55733;BME280;41637;52.364;9.910;2023-02-10T02:46:34;102665.02;;;2.73;88.16
55733;BME280;41637;52.364;9.910;2023-02-10T02:51:13;102659.16;;;2.75;87.66
55733;BME280;41637;52.364;9.910;2023-02-10T02:53:58;102657.05;;;2.75;87.93
55733;BME280;41637;52.364;9.910;2023-02-10T03:00:00;102658.41;;;2.72;88.12
55733;BME280;41637;52.364;9.910;2023-02-10T03:02:29;102656.73;;;2.71;87.83
55733;BME280;41637;52.364;9.910;2023-02-10T03:04:57;102661.54;;;2.69;87.89
55733;BME280;41637;52.364;9.910;2023-02-10T03:07:24;102658.63;;;2.64;87.80
55733;BME280;41637;52.364;9.910;2023-02-10T03:09:51;102658.42;;;2.61;87.75
55733;BME280;41637;52.364;9.910;2023-02-10T03:12:18;102654.32;;;2.59;87.70
55733;BME280;41637;52.364;9.910;2023-02-10T03:14:45;102656.99;;;2.58;87.78
55733;BME280;41637;52.364;9.910;2023-02-10T03:17:11;102655.73;;;2.56;88.14
55733;BME280;41637;52.364;9.910;2023-02-10T03:19:38;102646.66;;;2.55;88.08
55733;BME280;41637;52.364;9.910;2023-02-10T03:22:06;102654.28;;;2.57;88.10
55733;BME280;41637;52.364;9.910;2023-02-10T03:24:33;102659.16;;;2.57;88.12
55733;BME280;41637;52.364;9.910;2023-02-10T03:27:00;102656.66;;;2.58;88.03
55733;BME280;41637;52.364;9.910;2023-02-10T03:29:27;102659.54;;;2.60;88.06
55733;BME280;41637;52.364;9.910;2023-02-10T03:31:53;102659.47;;;2.61;87.88
55733;BME280;41637;52.364;9.910;2023-02-10T03:34:20;102661.54;;;2.62;87.83
55733;BME280;41637;52.364;9.910;2023-02-10T03:36:47;102661.84;;;2.63;88.02
55733;BME280;41637;52.364;9.910;2023-02-10T03:39:14;102667.19;;;2.64;87.79
55733;BME280;41637;52.364;9.910;2023-02-10T03:41:41;102667.42;;;2.66;87.93
55733;BME280;41637;52.364;9.910;2023-02-10T03:44:08;102672.19;;;2.69;87.46
55733;BME280;41637;52.364;9.910;2023-02-10T03:46:35;102671.63;;;2.70;87.35
55733;BME280;41637;52.364;9.910;2023-02-10T03:49:04;102677.34;;;2.71;87.49
55733;BME280;41637;52.364;9.910;2023-02-10T03:51:31;102674.83;;;2.72;87.52
55733;BME280;41637;52.364;9.910;2023-02-10T03:53:57;102669.02;;;2.73;87.33
55733;BME280;41637;52.364;9.910;2023-02-10T03:56:24;102666.64;;;2.75;87.33
55733;BME280;41637;52.364;9.910;2023-02-10T03:58:51;102660.09;;;2.77;87.17
55733;BME280;41637;52.364;9.910;2023-02-10T04:01:18;102666.13;;;2.78;86.82
55733;BME280;41637;52.364;9.910;2023-02-10T04:03:46;102673.83;;;2.78;86.90
55733;BME280;41637;52.364;9.910;2023-02-10T04:06:13;102677.33;;;2.78;86.99
55733;BME280;41637;52.364;9.910;2023-02-10T04:08:40;102676.26;;;2.79;87.00
55733;BME280;41637;52.364;9.910;2023-02-10T04:11:07;102676.56;;;2.79;86.83
55733;BME280;41637;52.364;9.910;2023-02-10T04:13:36;102671.02;;;2.79;86.95
55733;BME280;41637;52.364;9.910;2023-02-10T04:18:35;102672.89;;;2.76;87.15
55733;BME280;41637;52.364;9.910;2023-02-10T04:21:03;102671.77;;;2.77;87.09
55733;BME280;41637;52.364;9.910;2023-02-10T04:23:30;102665.45;;;2.78;87.18
55733;BME280;41637;52.364;9.910;2023-02-10T04:25:57;102661.64;;;2.77;87.13
55733;BME280;41637;52.364;9.910;2023-02-10T04:28:25;102656.80;;;2.76;87.04
55733;BME280;41637;52.364;9.910;2023-02-10T04:30:54;102659.15;;;2.75;86.83
55733;BME280;41637;52.364;9.910;2023-02-10T04:33:21;102663.73;;;2.74;86.94
55733;BME280;41637;52.364;9.910;2023-02-10T04:35:48;102661.35;;;2.73;86.94
55733;BME280;41637;52.364;9.910;2023-02-10T04:38:16;102654.31;;;2.70;86.88
55733;BME280;41637;52.364;9.910;2023-02-10T04:40:43;102656.89;;;2.67;87.02
55733;BME280;41637;52.364;9.910;2023-02-10T04:43:11;102658.63;;;2.64;86.84
55733;BME280;41637;52.364;9.910;2023-02-10T04:45:38;102660.92;;;2.60;86.99
55733;BME280;41637;52.364;9.910;2023-02-10T04:48:05;102662.88;;;2.56;87.14
55733;BME280;41637;52.364;9.910;2023-02-10T04:50:33;102657.34;;;2.51;87.40
55733;BME280;41637;52.364;9.910;2023-02-10T04:52:59;102658.18;;;2.48;87.50
55733;BME280;41637;52.364;9.910;2023-02-10T04:55:26;102653.20;;;2.46;87.61
55733;BME280;41637;52.364;9.910;2023-02-10T04:57:53;102653.34;;;2.43;87.79
55733;BME280;41637;52.364;9.910;2023-02-10T05:00:20;102655.31;;;2.42;88.10
55733;BME280;41637;52.364;9.910;2023-02-10T05:02:48;102662.36;;;2.41;88.33
55733;BME280;41637;52.364;9.910;2023-02-10T05:05:14;102662.90;;;2.41;88.47
55733;BME280;41637;52.364;9.910;2023-02-10T05:07:41;102668.39;;;2.42;88.36
55733;BME280;41637;52.364;9.910;2023-02-10T05:10:08;102670.81;;;2.43;88.66
55733;BME280;41637;52.364;9.910;2023-02-10T05:12:36;102665.88;;;2.44;88.37
55733;BME280;41637;52.364;9.910;2023-02-10T05:15:03;102666.23;;;2.44;88.91
55733;BME280;41637;52.364;9.910;2023-02-10T05:17:30;102669.14;;;2.45;88.71
55733;BME280;41637;52.364;9.910;2023-02-10T05:19:57;102666.38;;;2.44;88.55
55733;BME280;41637;52.364;9.910;2023-02-10T05:22:24;102673.03;;;2.44;88.81
55733;BME280;41637;52.364;9.910;2023-02-10T05:24:56;102673.89;;;2.44;89.07
55733;BME280;41637;52.364;9.910;2023-02-10T05:27:24;102671.56;;;2.46;89.15
55733;BME280;41637;52.364;9.910;2023-02-10T05:29:51;102667.23;;;2.45;89.06
55733;BME280;41637;52.364;9.910;2023-02-10T05:32:18;102669.20;;;2.48;89.16
55733;BME280;41637;52.364;9.910;2023-02-10T05:34:45;102670.40;;;2.48;89.10
55733;BME280;41637;52.364;9.910;2023-02-10T05:37:12;102672.27;;;2.50;89.06
55733;BME280;41637;52.364;9.910;2023-02-10T05:39:39;102679.92;;;2.50;89.17
55733;BME280;41637;52.364;9.910;2023-02-10T05:42:09;102679.59;;;2.50;89.04
55733;BME280;41637;52.364;9.910;2023-02-10T05:44:35;102680.94;;;2.51;88.90
55733;BME280;41637;52.364;9.910;2023-02-10T05:47:02;102685.09;;;2.52;89.01
55733;BME280;41637;52.364;9.910;2023-02-10T05:49:29;102688.36;;;2.52;88.91
55733;BME280;41637;52.364;9.910;2023-02-10T05:51:56;102688.65;;;2.54;89.02
55733;BME280;41637;52.364;9.910;2023-02-10T05:54:23;102692.16;;;2.54;89.09
55733;BME280;41637;52.364;9.910;2023-02-10T05:56:49;102687.02;;;2.55;89.14
55733;BME280;41637;52.364;9.910;2023-02-10T05:59:16;102688.47;;;2.54;89.29
55733;BME280;41637;52.364;9.910;2023-02-10T06:01:43;102690.98;;;2.52;88.94
55733;BME280;41637;52.364;9.910;2023-02-10T06:04:10;102693.55;;;2.50;89.13
55733;BME280;41637;52.364;9.910;2023-02-10T06:06:37;102697.49;;;2.48;89.21
55733;BME280;41637;52.364;9.910;2023-02-10T06:09:04;102699.32;;;2.46;89.00
55733;BME280;41637;52.364;9.910;2023-02-10T06:11:31;102706.52;;;2.45;89.07
55733;BME280;41637;52.364;9.910;2023-02-10T06:13:59;102711.45;;;2.44;89.31
55733;BME280;41637;52.364;9.910;2023-02-10T06:16:26;102710.39;;;2.41;89.27
55733;BME280;41637;52.364;9.910;2023-02-10T06:18:53;102715.70;;;2.39;89.59
55733;BME280;41637;52.364;9.910;2023-02-10T06:21:20;102720.80;;;2.39;89.30
55733;BME280;41637;52.364;9.910;2023-02-10T06:23:47;102722.45;;;2.37;89.69
55733;BME280;41637;52.364;9.910;2023-02-10T06:26:14;102721.01;;;2.34;89.98
55733;BME280;41637;52.364;9.910;2023-02-10T06:28:40;102726.27;;;2.30;89.93
55733;BME280;41637;52.364;9.910;2023-02-10T06:31:07;102726.85;;;2.25;89.82
55733;BME280;41637;52.364;9.910;2023-02-10T06:33:37;102730.73;;;2.20;89.86
55733;BME280;41637;52.364;9.910;2023-02-10T06:36:05;102732.35;;;2.19;89.92
55733;BME280;41637;52.364;9.910;2023-02-10T06:38:34;102737.48;;;2.17;90.21
55733;BME280;41637;52.364;9.910;2023-02-10T06:41:02;102742.56;;;2.13;90.05
55733;BME280;41637;52.364;9.910;2023-02-10T06:43:29;102750.91;;;2.10;90.53
55733;BME280;41637;52.364;9.910;2023-02-10T06:45:56;102752.98;;;2.07;90.69
55733;BME280;41637;52.364;9.910;2023-02-10T06:48:23;102751.86;;;2.04;90.44
55733;BME280;41637;52.364;9.910;2023-02-10T06:50:50;102760.08;;;2.00;90.92
55733;BME280;41637;52.364;9.910;2023-02-10T06:53:17;102765.94;;;1.97;91.14
55733;BME280;41637;52.364;9.910;2023-02-10T06:55:44;102763.61;;;1.95;91.47
55733;BME280;41637;52.364;9.910;2023-02-10T06:58:11;102764.50;;;1.95;91.72
55733;BME280;41637;52.364;9.910;2023-02-10T07:00:38;102763.28;;;1.95;91.52
55733;BME280;41637;52.364;9.910;2023-02-10T07:03:05;102759.83;;;1.94;91.92
55733;BME280;41637;52.364;9.910;2023-02-10T07:05:32;102757.17;;;1.94;91.74
55733;BME280;41637;52.364;9.910;2023-02-10T07:08:02;102758.00;;;1.96;91.78
55733;BME280;41637;52.364;9.910;2023-02-10T07:10:32;102759.88;;;1.97;91.68
55733;BME280;41637;52.364;9.910;2023-02-10T07:12:59;102754.96;;;1.97;91.84
55733;BME280;41637;52.364;9.910;2023-02-10T07:15:26;102755.40;;;1.99;91.97
55733;BME280;41637;52.364;9.910;2023-02-10T07:17:53;102758.61;;;2.01;91.73
55733;BME280;41637;52.364;9.910;2023-02-10T07:20:21;102759.79;;;2.03;92.13
55733;BME280;41637;52.364;9.910;2023-02-10T07:22:48;102758.98;;;2.05;92.28
55733;BME280;41637;52.364;9.910;2023-02-10T07:25:15;102755.63;;;2.10;92.18
55733;BME280;41637;52.364;9.910;2023-02-10T07:27:42;102754.11;;;2.13;92.10
55733;BME280;41637;52.364;9.910;2023-02-10T07:30:11;102752.52;;;2.17;92.19
55733;BME280;41637;52.364;9.910;2023-02-10T07:32:38;102754.08;;;2.21;91.88
55733;BME280;41637;52.364;9.910;2023-02-10T07:35:05;102756.81;;;2.26;91.69
55733;BME280;41637;52.364;9.910;2023-02-10T07:37:32;102756.88;;;2.29;91.81
55733;BME280;41637;52.364;9.910;2023-02-10T07:39:59;102756.60;;;2.31;91.56
55733;BME280;41637;52.364;9.910;2023-02-10T07:42:26;102760.67;;;2.33;91.33
55733;BME280;41637;52.364;9.910;2023-02-10T07:44:56;102765.75;;;2.37;91.49
55733;BME280;41637;52.364;9.910;2023-02-10T07:47:22;102767.20;;;2.39;91.82
55733;BME280;41637;52.364;9.910;2023-02-10T07:49:49;102771.52;;;2.44;91.50
55733;BME280;41637;52.364;9.910;2023-02-10T07:52:17;102773.41;;;2.49;91.51
55733;BME280;41637;52.364;9.910;2023-02-10T07:54:44;102771.39;;;2.55;91.54
55733;BME280;41637;52.364;9.910;2023-02-10T07:57:11;102775.41;;;2.62;91.37
55733;BME280;41637;52.364;9.910;2023-02-10T07:59:38;102775.23;;;2.70;91.08
55733;BME280;41637;52.364;9.910;2023-02-10T08:02:05;102777.23;;;2.76;91.04
55733;BME280;41637;52.364;9.910;2023-02-10T08:04:32;102776.52;;;2.80;91.02
55733;BME280;41637;52.364;9.910;2023-02-10T08:06:59;102775.96;;;2.87;90.55
55733;BME280;41637;52.364;9.910;2023-02-10T08:09:26;102778.92;;;2.95;90.40
55733;BME280;41637;52.364;9.910;2023-02-10T08:11:52;102776.77;;;3.00;90.12
55733;BME280;41637;52.364;9.910;2023-02-10T08:14:19;102782.80;;;3.05;90.13
55733;BME280;41637;52.364;9.910;2023-02-10T08:16:46;102781.77;;;3.09;89.64
55733;BME280;41637;52.364;9.910;2023-02-10T08:19:13;102787.86;;;3.13;89.67
55733;BME280;41637;52.364;9.910;2023-02-10T08:21:39;102791.45;;;3.14;89.57
55733;BME280;41637;52.364;9.910;2023-02-10T08:24:08;102793.83;;;3.19;89.42
55733;BME280;41637;52.364;9.910;2023-02-10T08:26:35;102792.33;;;3.21;89.28
55733;BME280;41637;52.364;9.910;2023-02-10T08:29:02;102796.98;;;3.26;89.28
55733;BME280;41637;52.364;9.910;2023-02-10T08:31:29;102797.39;;;3.32;89.02
55733;BME280;41637;52.364;9.910;2023-02-10T08:33:56;102800.16;;;3.40;88.82
55733;BME280;41637;52.364;9.910;2023-02-10T08:36:23;102803.21;;;3.45;88.70
55733;BME280;41637;52.364;9.910;2023-02-10T08:38:49;102804.06;;;3.53;88.62
55733;BME280;41637;52.364;9.910;2023-02-10T08:41:18;102802.91;;;3.62;88.45
55733;BME280;41637;52.364;9.910;2023-02-10T08:43:45;102806.69;;;3.66;88.11
55733;BME280;41637;52.364;9.910;2023-02-10T08:46:12;102806.39;;;3.73;88.12
55733;BME280;41637;52.364;9.910;2023-02-10T08:48:39;102810.84;;;3.78;88.05
55733;BME280;41637;52.364;9.910;2023-02-10T08:51:10;102811.98;;;3.83;87.45
55733;BME280;41637;52.364;9.910;2023-02-10T08:53:38;102819.98;;;3.88;87.47
55733;BME280;41637;52.364;9.910;2023-02-10T08:56:10;102817.33;;;3.95;87.35
55733;BME280;41637;52.364;9.910;2023-02-10T08:58:37;102820.02;;;4.04;87.11
55733;BME280;41637;52.364;9.910;2023-02-10T09:01:08;102821.06;;;4.14;86.81
55733;BME280;41637;52.364;9.910;2023-02-10T09:03:36;102818.00;;;4.22;86.39
55733;BME280;41637;52.364;9.910;2023-02-10T09:06:03;102815.58;;;4.35;86.06
55733;BME280;41637;52.364;9.910;2023-02-10T09:08:31;102816.12;;;4.44;85.64
55733;BME280;41637;52.364;9.910;2023-02-10T09:10:58;102823.14;;;4.57;84.91
55733;BME280;41637;52.364;9.910;2023-02-10T09:13:25;102817.23;;;4.63;84.45
55733;BME280;41637;52.364;9.910;2023-02-10T09:15:52;102818.60;;;4.69;84.19
55733;BME280;41637;52.364;9.910;2023-02-10T09:18:18;102819.97;;;4.67;83.82
55733;BME280;41637;52.364;9.910;2023-02-10T09:20:45;102819.23;;;4.68;83.83
55733;BME280;41637;52.364;9.910;2023-02-10T09:23:12;102820.77;;;4.68;83.83
55733;BME280;41637;52.364;9.910;2023-02-10T09:25:39;102818.15;;;4.71;83.76
55733;BME280;41637;52.364;9.910;2023-02-10T09:28:05;102820.83;;;4.74;83.59
55733;BME280;41637;52.364;9.910;2023-02-10T09:30:32;102825.33;;;4.78;83.57
55733;BME280;41637;52.364;9.910;2023-02-10T09:32:59;102826.73;;;4.84;83.66
55733;BME280;41637;52.364;9.910;2023-02-10T09:35:26;102824.73;;;4.92;83.57
55733;BME280;41637;52.364;9.910;2023-02-10T09:37:52;102826.27;;;4.89;83.16
55733;BME280;41637;52.364;9.910;2023-02-10T09:40:23;102826.70;;;4.82;83.30
55733;BME280;41637;52.364;9.910;2023-02-10T09:43:02;102828.65;;;4.78;83.37
55733;BME280;41637;52.364;9.910;2023-02-10T09:45:36;102830.63;;;4.74;83.52
55733;BME280;41637;52.364;9.910;2023-02-10T09:48:51;102833.64;;;4.70;83.75
55733;BME280;41637;52.364;9.910;2023-02-10T09:51:34;102842.80;;;4.73;83.77
55733;BME280;41637;52.364;9.910;2023-02-10T09:54:09;102845.27;;;4.76;83.80
55733;BME280;41637;52.364;9.910;2023-02-10T09:56:37;102842.33;;;4.78;83.60
55733;BME280;41637;52.364;9.910;2023-02-10T09:59:07;102844.92;;;4.79;83.36
55733;BME280;41637;52.364;9.910;2023-02-10T10:01:43;102843.52;;;4.82;83.32
55733;BME280;41637;52.364;9.910;2023-02-10T10:04:20;102841.09;;;4.88;83.57
55733;BME280;41637;52.364;9.910;2023-02-10T10:06:51;102838.77;;;4.98;83.18
55733;BME280;41637;52.364;9.910;2023-02-10T10:09:35;102842.64;;;4.98;82.76
55733;BME280;41637;52.364;9.910;2023-02-10T10:12:04;102839.48;;;4.98;82.55
55733;BME280;41637;52.364;9.910;2023-02-10T10:14:38;102840.41;;;4.87;82.47
55733;BME280;41637;52.364;9.910;2023-02-10T10:25:57;102841.88;;;5.06;82.65
55733;BME280;41637;52.364;9.910;2023-02-10T10:36:19;102835.83;;;5.32;80.91
55733;BME280;41637;52.364;9.910;2023-02-10T10:38:52;102840.73;;;5.35;80.86
55733;BME280;41637;52.364;9.910;2023-02-10T10:41:25;102835.73;;;5.37;80.46
55733;BME280;41637;52.364;9.910;2023-02-10T10:43:54;102835.41;;;5.42;80.77
55733;BME280;41637;52.364;9.910;2023-02-10T10:46:40;102832.61;;;5.54;80.38
55733;BME280;41637;52.364;9.910;2023-02-10T10:49:09;102833.33;;;5.57;79.92
55733;BME280;41637;52.364;9.910;2023-02-10T10:51:37;102829.46;;;5.66;79.64
55733;BME280;41637;52.364;9.910;2023-02-10T10:54:06;102829.20;;;5.70;79.40
55733;BME280;41637;52.364;9.910;2023-02-10T10:56:49;102820.59;;;5.80;79.06
55733;BME280;41637;52.364;9.910;2023-02-10T10:59:27;102815.30;;;5.83;78.63
55733;BME280;41637;52.364;9.910;2023-02-10T11:01:55;102812.81;;;5.92;78.20
55733;BME280;41637;52.364;9.910;2023-02-10T11:04:24;102808.08;;;5.98;77.99
55733;BME280;41637;52.364;9.910;2023-02-10T11:06:53;102809.23;;;6.05;77.77
55733;BME280;41637;52.364;9.910;2023-02-10T11:09:29;102806.54;;;6.09;77.20
55733;BME280;41637;52.364;9.910;2023-02-10T11:12:04;102803.31;;;6.16;76.92
55733;BME280;41637;52.364;9.910;2023-02-10T11:14:40;102810.19;;;6.27;76.67
55733;BME280;41637;52.364;9.910;2023-02-10T11:17:36;102806.40;;;6.37;76.35
55733;BME280;41637;52.364;9.910;2023-02-10T11:22:38;102801.09;;;6.58;75.66
55733;BME280;41637;52.364;9.910;2023-02-10T11:25:32;102796.11;;;6.67;75.04
55733;BME280;41637;52.364;9.910;2023-02-10T11:28:01;102797.34;;;6.80;74.82
55733;BME280;41637;52.364;9.910;2023-02-10T11:30:33;102796.60;;;6.84;73.96
55733;BME280;41637;52.364;9.910;2023-02-10T11:33:01;102795.12;;;6.99;73.65
55733;BME280;41637;52.364;9.910;2023-02-10T11:35:30;102798.48;;;7.04;72.86
55733;BME280;41637;52.364;9.910;2023-02-10T11:38:02;102792.97;;;7.07;72.60
55733;BME280;41637;52.364;9.910;2023-02-10T11:40:30;102789.39;;;7.11;72.24
55733;BME280;41637;52.364;9.910;2023-02-10T11:42:59;102791.52;;;7.19;71.77
55733;BME280;41637;52.364;9.910;2023-02-10T11:45:30;102792.09;;;7.31;70.61
55733;BME280;41637;52.364;9.910;2023-02-10T11:48:20;102785.75;;;7.47;70.84
55733;BME280;41637;52.364;9.910;2023-02-10T11:50:47;102782.05;;;7.66;70.17
55733;BME280;41637;52.364;9.910;2023-02-10T11:53:26;102782.10;;;7.78;69.12
55733;BME280;41637;52.364;9.910;2023-02-10T11:56:23;102786.55;;;7.77;68.24
55733;BME280;41637;52.364;9.910;2023-02-10T12:01:59;102783.11;;;7.89;67.24
55733;BME280;41637;52.364;9.910;2023-02-10T12:10:09;102779.37;;;8.32;65.66
55733;BME280;41637;52.364;9.910;2023-02-10T12:13:05;102777.97;;;8.55;64.66
55733;BME280;41637;52.364;9.910;2023-02-10T12:27:22;102777.59;;;10.17;58.52
55733;BME280;41637;52.364;9.910;2023-02-10T12:30:01;102774.83;;;10.59;57.33
55733;BME280;41637;52.364;9.910;2023-02-10T12:33:38;102776.23;;;10.70;56.31
55733;BME280;41637;52.364;9.910;2023-02-10T12:35:55;102765.31;;;11.02;55.94
55733;BME280;41637;52.364;9.910;2023-02-10T12:41:16;102765.14;;;11.53;53.88
55733;BME280;41637;52.364;9.910;2023-02-10T12:44:11;102760.48;;;11.93;52.86
55733;BME280;41637;52.364;9.910;2023-02-10T12:47:00;102755.70;;;11.82;51.65
55733;BME280;41637;52.364;9.910;2023-02-10T12:52:14;102759.62;;;11.61;51.76
55733;BME280;41637;52.364;9.910;2023-02-10T12:54:55;102758.30;;;11.66;51.53
55733;BME280;41637;52.364;9.910;2023-02-10T12:57:27;102747.25;;;11.96;50.82
55733;BME280;41637;52.364;9.910;2023-02-10T13:00:02;102740.19;;;12.10;50.70
55733;BME280;41637;52.364;9.910;2023-02-10T13:02:40;102742.85;;;12.16;50.06
55733;BME280;41637;52.364;9.910;2023-02-10T13:05:11;102741.30;;;11.81;50.43
55733;BME280;41637;52.364;9.910;2023-02-10T13:07:51;102742.60;;;11.53;51.32
55733;BME280;41637;52.364;9.910;2023-02-10T13:10:37;102737.55;;;11.12;52.28
55733;BME280;41637;52.364;9.910;2023-02-10T13:13:19;102737.14;;;10.67;53.71
55733;BME280;41637;52.364;9.910;2023-02-10T13:16:00;102729.61;;;10.43;54.69
55733;BME280;41637;52.364;9.910;2023-02-10T13:18:31;102725.86;;;10.02;55.69
55733;BME280;41637;52.364;9.910;2023-02-10T13:21:28;102725.67;;;9.69;56.82
55733;BME280;41637;52.364;9.910;2023-02-10T13:24:07;102716.61;;;9.40;58.03
55733;BME280;41637;52.364;9.910;2023-02-10T13:34:57;102710.09;;;10.32;56.20
55733;BME280;41637;52.364;9.910;2023-02-10T13:37:38;102703.17;;;11.18;54.31
55733;BME280;41637;52.364;9.910;2023-02-10T13:40:32;102709.23;;;11.74;51.60
55733;BME280;41637;52.364;9.910;2023-02-10T13:43:02;102698.38;;;11.99;50.57
55733;BME280;41637;52.364;9.910;2023-02-10T13:45:31;102695.10;;;11.84;50.58
55733;BME280;41637;52.364;9.910;2023-02-10T13:48:02;102692.11;;;11.65;50.30
55733;BME280;41637;52.364;9.910;2023-02-10T13:50:30;102688.51;;;11.54;50.80
55733;BME280;41637;52.364;9.910;2023-02-10T13:53:02;102689.92;;;11.60;50.45
55733;BME280;41637;52.364;9.910;2023-02-10T14:00:49;102687.85;;;11.11;51.53
55733;BME280;41637;52.364;9.910;2023-02-10T14:03:24;102681.67;;;10.92;52.29
55733;BME280;41637;52.364;9.910;2023-02-10T14:05:53;102682.14;;;11.01;52.11
55733;BME280;41637;52.364;9.910;2023-02-10T14:13:59;102670.67;;;10.71;52.99
55733;BME280;41637;52.364;9.910;2023-02-10T14:16:35;102673.55;;;10.60;53.28
55733;BME280;41637;52.364;9.910;2023-02-10T14:19:20;102671.23;;;10.53;53.87
55733;BME280;41637;52.364;9.910;2023-02-10T14:21:48;102677.60;;;10.14;54.58
55733;BME280;41637;52.364;9.910;2023-02-10T14:24:18;102675.76;;;9.81;55.51
55733;BME280;41637;52.364;9.910;2023-02-10T14:26:56;102674.23;;;9.58;56.62
55733;BME280;41637;52.364;9.910;2023-02-10T14:29:25;102664.58;;;9.37;57.46
55733;BME280;41637;52.364;9.910;2023-02-10T14:31:55;102662.84;;;9.32;58.00
55733;BME280;41637;52.364;9.910;2023-02-10T14:34:29;102661.77;;;9.73;57.41
55733;BME280;41637;52.364;9.910;2023-02-10T14:37:12;102660.64;;;10.34;55.70
55733;BME280;41637;52.364;9.910;2023-02-10T14:39:49;102662.88;;;10.84;53.68
55733;BME280;41637;52.364;9.910;2023-02-10T14:42:17;102660.05;;;11.09;52.54
55733;BME280;41637;52.364;9.910;2023-02-10T14:44:45;102656.52;;;11.24;51.59